Schedule Details


Flight Number: CTN624
Departure: Klisa (LDOS) at 23:15
Arrival: Cilipi (LDDU) at 00:15
Route: ADULA P10 NERRA

Weather Information
LDOS 191000Z 13005KT CAVOK 10/00 Q1023
LDDU 191000Z 17008KT 140V210 9999 FEW023 BKN050 13/08 Q1019 BECMG 14008KT
Schedule Frequency

Route Map